createdAt,value
2022-11-24T00:01:06.191Z,21.75
2022-11-24T00:04:09.287Z,21.75
2022-11-24T00:07:12.336Z,21.75
2022-11-24T00:10:15.441Z,21.75
2022-11-24T00:13:19.882Z,21.74
2022-11-24T00:16:24.320Z,21.74
2022-11-24T00:19:27.336Z,21.74
2022-11-24T00:22:30.378Z,21.74
2022-11-24T00:25:33.594Z,21.75
2022-11-24T00:28:38.814Z,21.75
2022-11-24T00:31:43.273Z,21.73
2022-11-24T00:34:46.276Z,21.74
2022-11-24T00:37:49.276Z,21.75
2022-11-24T00:40:52.950Z,21.75
2022-11-24T00:43:58.082Z,21.75
2022-11-24T00:47:01.152Z,21.75
2022-11-24T00:50:04.474Z,21.75
2022-11-24T00:53:07.680Z,21.73
2022-11-24T00:56:11.683Z,21.73
2022-11-24T00:59:16.148Z,21.75
2022-11-24T01:02:19.202Z,21.73
2022-11-24T01:05:22.243Z,21.73
2022-11-24T01:08:25.279Z,21.74
2022-11-24T01:11:29.975Z,21.72
2022-11-24T01:14:34.560Z,21.72
2022-11-24T01:17:37.768Z,21.72
2022-11-24T01:20:40.714Z,21.72
2022-11-24T01:23:43.849Z,21.72
2022-11-24T01:26:47.014Z,21.71
2022-11-24T01:29:51.393Z,21.71
2022-11-24T01:32:54.421Z,21.70
2022-11-24T01:35:58.534Z,21.69
2022-11-24T01:39:01.639Z,21.72
2022-11-24T01:42:04.884Z,21.70
2022-11-24T01:45:41.748Z,21.69
2022-11-24T01:48:49.341Z,21.69
2022-11-24T01:51:56.369Z,21.69
2022-11-24T01:55:03.227Z,21.69
2022-11-24T01:58:09.126Z,21.69
2022-11-24T02:01:14.435Z,21.69
2022-11-24T02:04:21.002Z,21.68
2022-11-24T02:07:24.223Z,21.69
2022-11-24T02:10:27.363Z,21.68
2022-11-24T02:13:31.116Z,21.68
2022-11-24T02:16:36.819Z,21.69
2022-11-24T02:19:48.798Z,21.66
2022-11-24T02:22:57.237Z,21.67
2022-11-24T02:26:08.224Z,21.67
2022-11-24T02:29:14.246Z,21.68
2022-11-24T02:32:17.724Z,21.68
2022-11-24T02:35:21.144Z,21.67
2022-11-24T02:38:32.425Z,21.67
2022-11-24T02:41:35.645Z,21.66
2022-11-24T02:44:45.786Z,21.67
2022-11-24T02:47:48.780Z,21.67
2022-11-24T02:50:51.771Z,21.68
2022-11-24T02:53:54.773Z,21.68
2022-11-24T02:56:58.113Z,21.66
2022-11-24T03:00:02.552Z,21.65
2022-11-24T03:03:05.753Z,21.66
2022-11-24T03:06:08.857Z,21.66
2022-11-24T03:09:12.107Z,21.67
2022-11-24T03:12:15.150Z,21.66
2022-11-24T03:15:19.507Z,21.65
2022-11-24T03:18:22.491Z,21.66
2022-11-24T03:21:25.464Z,21.65
2022-11-24T03:24:28.456Z,21.66
2022-11-24T03:27:31.732Z,21.66
2022-11-24T03:30:36.151Z,21.65
2022-11-24T03:33:39.514Z,21.67
2022-11-24T03:36:42.511Z,21.67
2022-11-24T03:39:45.527Z,21.66
2022-11-24T03:42:48.501Z,21.66
2022-11-24T03:45:53.105Z,21.66
2022-11-24T03:48:56.174Z,21.65
2022-11-24T03:52:02.628Z,21.66
2022-11-24T03:55:08.927Z,21.65
2022-11-24T03:58:11.990Z,21.66
2022-11-24T04:01:16.444Z,21.65
2022-11-24T04:04:19.531Z,21.66
2022-11-24T04:07:22.571Z,21.64
2022-11-24T04:10:26.124Z,21.66
2022-11-24T04:13:29.025Z,21.66
2022-11-24T04:16:33.572Z,21.67
2022-11-24T04:19:36.574Z,21.66
2022-11-24T04:22:39.981Z,21.68
2022-11-24T04:25:43.811Z,21.71
2022-11-24T04:28:46.867Z,21.71
2022-11-24T04:31:51.335Z,21.70
2022-11-24T04:34:54.377Z,21.69
2022-11-24T04:37:57.424Z,21.68
2022-11-24T04:41:02.503Z,21.69
2022-11-24T04:44:05.680Z,21.70
2022-11-24T04:47:16.391Z,21.68
2022-11-24T04:50:19.854Z,21.74
2022-11-24T04:53:22.862Z,21.69
2022-11-24T04:56:25.870Z,21.69
2022-11-24T04:59:28.966Z,21.67
2022-11-24T05:02:33.327Z,21.68
2022-11-24T05:05:36.303Z,21.73
2022-11-24T05:08:39.362Z,21.73
2022-11-24T05:11:42.346Z,21.80
2022-11-24T05:14:45.466Z,21.83
2022-11-24T05:17:49.936Z,21.86
2022-11-24T05:20:52.888Z,21.89
2022-11-24T05:23:55.920Z,21.85
2022-11-24T05:26:58.952Z,21.80
2022-11-24T05:30:01.992Z,21.81
2022-11-24T05:33:07.935Z,21.80
2022-11-24T05:36:32.193Z,21.80
2022-11-24T05:39:36.265Z,21.78
2022-11-24T05:42:46.564Z,21.78
2022-11-24T05:45:50.526Z,21.77
2022-11-24T05:48:54.949Z,21.75
2022-11-24T05:51:58.011Z,21.76
2022-11-24T05:55:01.020Z,21.77
2022-11-24T05:58:06.506Z,21.75
2022-11-24T06:01:09.529Z,21.74
2022-11-24T06:04:14.087Z,21.73
2022-11-24T06:07:17.260Z,21.72
2022-11-24T06:10:21.812Z,21.74
2022-11-24T06:13:24.879Z,21.72
2022-11-24T06:16:28.195Z,21.70
2022-11-24T06:19:32.897Z,21.70
2022-11-24T06:22:35.962Z,21.70
2022-11-24T06:25:38.996Z,21.71
2022-11-24T06:28:42.108Z,21.71
2022-11-24T06:31:45.147Z,21.73
2022-11-24T06:34:49.599Z,21.73
2022-11-24T06:37:52.668Z,21.76
2022-11-24T06:41:00.508Z,21.76
2022-11-24T06:44:04.812Z,21.78
2022-11-24T06:47:07.841Z,21.94
2022-11-24T06:50:12.336Z,22.00
2022-11-24T06:53:15.493Z,22.14
2022-11-24T06:56:21.033Z,22.35
2022-11-24T06:59:24.120Z,22.03
2022-11-24T07:02:27.103Z,21.96
2022-11-24T07:05:31.548Z,21.93
2022-11-24T07:08:34.571Z,21.87
2022-11-24T07:11:37.918Z,21.85
2022-11-24T07:14:40.929Z,21.85
2022-11-24T07:17:43.951Z,21.84
2022-11-24T07:20:48.354Z,21.83
2022-11-24T07:23:51.488Z,21.83
2022-11-24T07:26:54.530Z,21.83
2022-11-24T07:29:57.595Z,21.83
2022-11-24T07:33:01.120Z,21.81
2022-11-24T07:36:07.668Z,21.81
2022-11-24T07:39:10.803Z,21.81
2022-11-24T07:42:13.812Z,21.81
2022-11-24T07:45:17.011Z,21.80
2022-11-24T07:48:19.992Z,21.79
2022-11-24T07:51:24.412Z,21.82
2022-11-24T07:54:27.659Z,21.84
2022-11-24T07:57:30.738Z,21.81
2022-11-24T08:00:33.830Z,21.81
2022-11-24T08:03:37.313Z,21.81
2022-11-24T08:06:47.034Z,21.82
2022-11-24T08:09:52.227Z,21.82
2022-11-24T08:13:01.523Z,21.81
2022-11-24T08:16:09.340Z,21.78
2022-11-24T08:19:12.549Z,21.81
2022-11-24T08:22:17.151Z,21.79
2022-11-24T08:25:20.196Z,21.84
2022-11-24T08:28:23.556Z,21.84
2022-11-24T08:31:33.401Z,21.84
2022-11-24T08:34:37.444Z,21.82
2022-11-24T08:37:41.938Z,21.80
2022-11-24T08:40:44.972Z,21.78
2022-11-24T08:43:48.006Z,21.78
2022-11-24T08:46:51.390Z,21.77
2022-11-24T08:49:54.448Z,21.76
2022-11-24T08:52:58.862Z,21.75
2022-11-24T08:56:02.551Z,21.76
2022-11-24T08:59:05.771Z,21.75
2022-11-24T09:02:13.182Z,21.73
2022-11-24T09:05:43.715Z,21.75
2022-11-24T09:08:40.613Z,21.75
2022-11-24T09:11:43.593Z,21.75
2022-11-24T09:14:46.617Z,21.76
2022-11-24T09:17:49.791Z,21.76
2022-11-24T09:20:52.878Z,21.76
2022-11-24T09:23:57.372Z,21.77
2022-11-24T09:27:00.644Z,21.77
2022-11-24T09:30:03.918Z,21.78
2022-11-24T09:33:07.026Z,21.78
2022-11-24T09:36:10.527Z,21.78
2022-11-24T09:39:14.928Z,21.79
2022-11-24T09:42:25.729Z,21.77
2022-11-24T09:46:05.123Z,21.78
2022-11-24T09:49:15.386Z,21.80
2022-11-24T09:52:25.949Z,21.78
2022-11-24T09:55:36.460Z,21.79
2022-11-24T09:58:45.967Z,21.78
2022-11-24T10:01:49.998Z,21.80
2022-11-24T10:04:54.875Z,21.80
2022-11-24T10:08:15.682Z,21.79
2022-11-24T10:11:33.008Z,21.79
2022-11-24T10:15:18.888Z,21.78
2022-11-24T10:18:38.679Z,21.79
2022-11-24T10:22:04.947Z,21.79
2022-11-24T10:25:19.955Z,21.80
2022-11-24T10:28:30.934Z,21.78
2022-11-24T10:31:36.556Z,21.79
2022-11-24T10:34:44.453Z,21.79
2022-11-24T10:38:00.210Z,21.80
2022-11-24T10:41:08.798Z,21.79
2022-11-24T10:44:15.723Z,21.80
2022-11-24T10:47:22.770Z,21.79
2022-11-24T10:50:28.118Z,21.80
2022-11-24T10:53:32.555Z,21.78
2022-11-24T10:56:41.432Z,21.79
2022-11-24T10:59:45.919Z,21.77
2022-11-24T11:02:50.226Z,21.78
2022-11-24T11:05:57.038Z,21.78
2022-11-24T11:09:19.418Z,21.78
2022-11-24T11:15:49.004Z,21.77
2022-11-24T11:18:52.422Z,21.78
2022-11-24T11:22:02.781Z,21.77
2022-11-24T11:25:19.588Z,21.78
2022-11-24T11:28:30.171Z,21.78
2022-11-24T11:31:35.495Z,21.78
2022-11-24T11:34:38.668Z,21.78
2022-11-24T11:37:42.402Z,21.78
2022-11-24T11:40:45.702Z,21.77
2022-11-24T11:43:54.680Z,21.76
2022-11-24T11:47:00.724Z,21.76
2022-11-24T11:50:04.279Z,21.78
2022-11-24T11:53:19.215Z,21.74
2022-11-24T11:56:27.302Z,21.76
2022-11-24T12:00:05.633Z,21.75
2022-11-24T12:03:50.040Z,21.76
2022-11-24T12:07:18.747Z,21.74
2022-11-24T12:10:32.552Z,21.75
2022-11-24T12:13:48.577Z,21.75
2022-11-24T12:17:02.698Z,21.74
2022-11-24T12:20:20.244Z,21.74
2022-11-24T12:23:32.525Z,21.75
2022-11-24T12:26:42.550Z,21.74
2022-11-24T12:30:11.900Z,21.74
2022-11-24T12:33:37.067Z,21.76
2022-11-24T12:37:04.665Z,21.76
2022-11-24T12:40:16.391Z,21.74
2022-11-24T12:43:25.515Z,21.75
2022-11-24T12:46:38.136Z,21.72
2022-11-24T12:49:51.639Z,21.75
2022-11-24T12:53:00.798Z,21.74
2022-11-24T12:56:11.352Z,21.75
2022-11-24T12:59:26.271Z,21.74
2022-11-24T13:02:45.231Z,21.75
2022-11-24T13:05:55.019Z,21.75
2022-11-24T13:08:58.196Z,21.74
2022-11-24T13:12:13.447Z,21.74
2022-11-24T13:15:43.362Z,21.73
2022-11-24T13:18:46.875Z,21.69
2022-11-24T13:22:01.239Z,21.65
2022-11-24T13:25:20.416Z,21.69
2022-11-24T13:29:08.861Z,21.76
2022-11-24T13:32:52.656Z,21.79
2022-11-24T13:36:29.857Z,21.81
2022-11-24T13:39:50.832Z,21.83
2022-11-24T13:43:21.690Z,21.84
2022-11-24T13:46:56.643Z,21.84
2022-11-24T13:50:07.544Z,21.84
2022-11-24T13:53:16.343Z,21.85
2022-11-24T13:56:26.361Z,21.85
2022-11-24T13:59:35.959Z,21.86
2022-11-24T14:02:39.084Z,21.86
2022-11-24T14:05:49.279Z,21.88
2022-11-24T14:08:53.568Z,21.87
2022-11-24T14:12:07.343Z,21.87
2022-11-24T14:15:24.245Z,21.88
2022-11-24T14:18:29.189Z,21.88
2022-11-24T14:21:37.547Z,21.87
2022-11-24T14:24:43.616Z,21.86
2022-11-24T14:27:47.279Z,21.86
2022-11-24T14:30:50.359Z,21.86
2022-11-24T14:34:14.152Z,21.85
2022-11-24T14:37:18.854Z,21.78
2022-11-24T14:40:42.300Z,21.79
2022-11-24T14:43:45.503Z,21.80
2022-11-24T14:46:49.341Z,21.81
2022-11-24T14:49:53.585Z,21.84
2022-11-24T14:52:59.344Z,21.84
2022-11-24T14:56:10.297Z,21.84
2022-11-24T14:59:23.487Z,21.77
2022-11-24T15:02:43.432Z,21.77
2022-11-24T15:05:55.088Z,21.75
2022-11-24T15:08:59.655Z,21.74
2022-11-24T15:12:07.905Z,21.76
2022-11-24T15:15:20.730Z,21.76
2022-11-24T15:18:28.014Z,21.74
2022-11-24T15:21:32.742Z,21.73
2022-11-24T15:24:50.514Z,21.72
2022-11-24T15:27:53.538Z,21.71
2022-11-24T15:31:00.721Z,21.71
2022-11-24T15:34:06.722Z,21.70
2022-11-24T15:37:10.079Z,21.69
2022-11-24T15:40:16.204Z,21.68
2022-11-24T15:43:23.911Z,21.69
2022-11-24T15:46:27.983Z,21.68
2022-11-24T15:49:31.147Z,21.67
2022-11-24T15:52:34.296Z,21.69
2022-11-24T15:55:38.844Z,21.71
2022-11-24T15:58:42.016Z,21.68
2022-11-24T16:01:46.353Z,21.70
2022-11-24T16:04:49.440Z,21.69
2022-11-24T16:07:52.563Z,21.67
2022-11-24T16:10:57.253Z,21.68
2022-11-24T16:14:00.377Z,21.68
2022-11-24T16:17:04.008Z,21.65
2022-11-24T16:20:08.633Z,21.65
2022-11-24T16:23:11.843Z,21.66
2022-11-24T16:26:16.309Z,21.64
2022-11-24T16:29:20.986Z,21.64
2022-11-24T16:32:24.053Z,21.74
2022-11-24T16:35:27.085Z,21.76
2022-11-24T16:38:30.168Z,21.80
2022-11-24T16:41:34.612Z,21.75
2022-11-24T16:44:37.780Z,21.78
2022-11-24T16:47:42.106Z,21.80
2022-11-24T16:50:45.151Z,21.72
2022-11-24T16:53:48.720Z,21.70
2022-11-24T16:56:53.329Z,21.68
2022-11-24T16:59:56.395Z,21.66
2022-11-24T17:02:59.434Z,21.66
2022-11-24T17:06:02.489Z,21.65
2022-11-24T17:09:05.854Z,21.66
2022-11-24T17:12:10.342Z,21.64
2022-11-24T17:18:37.615Z,21.64
2022-11-24T17:21:40.675Z,21.64
2022-11-24T17:24:43.740Z,21.62
2022-11-24T17:27:48.223Z,21.62
2022-11-24T17:30:51.316Z,21.63
2022-11-24T17:33:56.048Z,21.61
2022-11-24T17:36:59.055Z,21.61
2022-11-24T17:40:26.921Z,21.63
2022-11-24T17:43:27.508Z,21.62
2022-11-24T17:46:31.621Z,21.63
2022-11-24T17:49:34.705Z,21.65
2022-11-24T17:52:37.769Z,21.77
2022-11-24T17:55:40.973Z,21.81
2022-11-24T17:58:45.836Z,21.88
2022-11-24T18:01:50.978Z,21.96
2022-11-24T18:04:54.099Z,21.95
2022-11-24T18:07:57.175Z,21.85
2022-11-24T18:11:05.090Z,21.88
2022-11-24T18:14:10.911Z,21.88
2022-11-24T18:17:13.983Z,21.84
2022-11-24T18:20:17.262Z,21.93
2022-11-24T18:23:20.392Z,21.94
2022-11-24T18:26:23.460Z,21.97
2022-11-24T18:29:27.925Z,22.00
2022-11-24T18:32:30.991Z,22.01
2022-11-24T18:35:34.029Z,22.00
2022-11-24T18:38:37.783Z,21.98
2022-11-24T18:41:41.106Z,21.92
2022-11-24T18:44:49.719Z,21.92
2022-11-24T18:47:55.655Z,21.94
2022-11-24T18:50:58.731Z,21.96
2022-11-24T18:54:03.096Z,21.98
2022-11-24T18:57:06.194Z,22.02
2022-11-24T19:00:12.164Z,22.02
2022-11-24T19:03:15.164Z,22.02
2022-11-24T19:06:21.058Z,22.05
2022-11-24T19:09:25.567Z,22.04
2022-11-24T19:12:28.807Z,22.05
2022-11-24T19:15:35.312Z,22.04
2022-11-24T19:18:38.352Z,22.06
2022-11-24T19:21:41.770Z,22.04
2022-11-24T19:24:46.645Z,22.01
2022-11-24T19:27:49.701Z,21.96
2022-11-24T19:30:54.094Z,21.94
2022-11-24T19:33:58.810Z,21.96
2022-11-24T19:37:01.977Z,22.00
2022-11-24T19:40:05.560Z,22.01
2022-11-24T19:43:08.605Z,22.01
2022-11-24T19:46:15.118Z,22.01
2022-11-24T19:49:18.175Z,22.01
2022-11-24T19:52:21.464Z,22.02
2022-11-24T19:55:24.525Z,22.00
2022-11-24T19:58:27.591Z,21.99
2022-11-24T20:01:33.849Z,22.00
2022-11-24T20:04:39.824Z,21.99
2022-11-24T20:07:42.976Z,22.00
2022-11-24T20:10:45.972Z,22.00
2022-11-24T20:13:50.207Z,22.00
2022-11-24T20:16:54.675Z,21.99
2022-11-24T20:19:57.714Z,21.92
2022-11-24T20:23:00.736Z,21.93
2022-11-24T20:26:05.454Z,21.96
2022-11-24T20:29:09.964Z,21.98
2022-11-24T20:32:19.656Z,21.99
2022-11-24T20:35:22.677Z,21.99
2022-11-24T20:38:25.748Z,21.99
2022-11-24T20:41:30.912Z,22.00
2022-11-24T20:44:34.229Z,22.00
2022-11-24T20:47:38.946Z,22.00
2022-11-24T20:50:45.723Z,21.99
2022-11-24T20:53:51.903Z,21.99
2022-11-24T20:56:55.265Z,22.00
2022-11-24T20:59:58.279Z,22.01
2022-11-24T21:03:02.702Z,22.02
2022-11-24T21:06:05.966Z,21.97
2022-11-24T21:09:10.072Z,21.92
2022-11-24T21:12:13.081Z,21.88
2022-11-24T21:15:16.131Z,21.86
2022-11-24T21:18:21.374Z,21.84
2022-11-24T21:21:26.635Z,21.82
2022-11-24T21:24:30.994Z,21.82
2022-11-24T21:27:33.963Z,21.81
2022-11-24T21:30:38.070Z,21.80
2022-11-24T21:33:44.968Z,21.79
2022-11-24T21:36:48.429Z,21.79
2022-11-24T21:39:51.428Z,21.78
2022-11-24T21:42:54.495Z,21.78
2022-11-24T21:46:01.821Z,21.77
2022-11-24T21:49:06.525Z,21.76
2022-11-24T21:52:09.571Z,21.77
2022-11-24T21:55:12.571Z,21.75
2022-11-24T21:58:15.598Z,21.75
2022-11-24T22:01:20.358Z,21.75
2022-11-24T22:04:24.845Z,21.76
2022-11-24T22:07:32.146Z,21.75
2022-11-24T22:10:35.206Z,21.75
2022-11-24T22:13:38.410Z,21.75
2022-11-24T22:16:41.462Z,21.74
2022-11-24T22:19:45.973Z,21.74
2022-11-24T22:22:48.953Z,21.74
2022-11-24T22:25:51.928Z,21.74
2022-11-24T22:28:56.446Z,21.74
2022-11-24T22:31:59.500Z,21.74
2022-11-24T22:35:04.057Z,21.71
2022-11-24T22:38:07.155Z,21.72
2022-11-24T22:41:11.962Z,21.72
2022-11-24T22:44:15.028Z,21.71
2022-11-24T22:47:18.103Z,21.71
2022-11-24T22:50:22.603Z,21.71
2022-11-24T22:53:25.576Z,21.72
2022-11-24T22:56:29.766Z,21.71
2022-11-24T22:59:32.802Z,21.73
2022-11-24T23:02:35.835Z,21.72
2022-11-24T23:05:40.297Z,21.71
2022-11-24T23:08:43.651Z,21.71
2022-11-24T23:11:46.691Z,21.71
2022-11-24T23:14:49.771Z,21.69
2022-11-24T23:17:52.800Z,21.69
2022-11-24T23:20:57.230Z,21.71
2022-11-24T23:24:02.107Z,21.70
2022-11-24T23:27:05.838Z,21.71
2022-11-24T23:30:09.839Z,21.70
2022-11-24T23:33:12.885Z,21.69
2022-11-24T23:36:19.745Z,21.69
2022-11-24T23:39:22.691Z,21.69
2022-11-24T23:42:25.745Z,21.68
2022-11-24T23:45:28.928Z,21.69
2022-11-24T23:48:32.016Z,21.69
2022-11-24T23:51:36.665Z,21.68
2022-11-24T23:54:39.707Z,21.67
2022-11-24T23:57:42.719Z,21.65
